sensor_id;sensor_type;location;lat;lon;timestamp;P1;durP1;ratioP1;P2;durP2;ratioP2
35602;SDS011;21725;50.836;4.368;2022-07-01T00:02:14;9.43;;;4.20;;
35602;SDS011;21725;50.836;4.368;2022-07-01T00:04:46;8.65;;;4.88;;
35602;SDS011;21725;50.836;4.368;2022-07-01T00:07:11;9.25;;;5.03;;
35602;SDS011;21725;50.836;4.368;2022-07-01T00:09:41;8.07;;;4.78;;
35602;SDS011;21725;50.836;4.368;2022-07-01T00:12:07;7.90;;;4.78;;
35602;SDS011;21725;50.836;4.368;2022-07-01T00:14:35;8.50;;;4.70;;
35602;SDS011;21725;50.836;4.368;2022-07-01T00:17:02;10.32;;;4.68;;
35602;SDS011;21725;50.836;4.368;2022-07-01T00:19:28;9.10;;;4.95;;
35602;SDS011;21725;50.836;4.368;2022-07-01T00:21:57;6.90;;;4.25;;
35602;SDS011;21725;50.836;4.368;2022-07-01T00:24:22;10.13;;;5.10;;
35602;SDS011;21725;50.836;4.368;2022-07-01T00:26:48;9.57;;;5.20;;
35602;SDS011;21725;50.836;4.368;2022-07-01T00:29:14;13.32;;;5.20;;
35602;SDS011;21725;50.836;4.368;2022-07-01T00:31:41;12.05;;;6.18;;
35602;SDS011;21725;50.836;4.368;2022-07-01T00:34:15;9.55;;;5.07;;
35602;SDS011;21725;50.836;4.368;2022-07-01T00:36:41;9.30;;;5.20;;
35602;SDS011;21725;50.836;4.368;2022-07-01T00:39:07;11.02;;;5.70;;
35602;SDS011;21725;50.836;4.368;2022-07-01T00:41:33;11.65;;;5.57;;
35602;SDS011;21725;50.836;4.368;2022-07-01T00:43:58;8.15;;;4.90;;
35602;SDS011;21725;50.836;4.368;2022-07-01T00:46:24;8.75;;;6.30;;
35602;SDS011;21725;50.836;4.368;2022-07-01T00:48:51;9.23;;;6.70;;
35602;SDS011;21725;50.836;4.368;2022-07-01T00:51:19;12.15;;;6.20;;
35602;SDS011;21725;50.836;4.368;2022-07-01T00:53:45;11.27;;;6.72;;
35602;SDS011;21725;50.836;4.368;2022-07-01T00:56:11;11.25;;;6.97;;
35602;SDS011;21725;50.836;4.368;2022-07-01T00:58:37;12.57;;;6.70;;
35602;SDS011;21725;50.836;4.368;2022-07-01T01:01:03;12.50;;;6.53;;
35602;SDS011;21725;50.836;4.368;2022-07-01T01:03:29;14.20;;;6.82;;
35602;SDS011;21725;50.836;4.368;2022-07-01T01:05:55;14.15;;;7.05;;
35602;SDS011;21725;50.836;4.368;2022-07-01T01:08:22;9.32;;;6.68;;
35602;SDS011;21725;50.836;4.368;2022-07-01T01:10:48;11.60;;;7.10;;
35602;SDS011;21725;50.836;4.368;2022-07-01T01:13:15;10.88;;;6.85;;
35602;SDS011;21725;50.836;4.368;2022-07-01T01:15:40;14.95;;;6.90;;
35602;SDS011;21725;50.836;4.368;2022-07-01T01:18:06;16.63;;;6.80;;
35602;SDS011;21725;50.836;4.368;2022-07-01T01:20:32;17.08;;;8.00;;
35602;SDS011;21725;50.836;4.368;2022-07-01T01:23:04;13.95;;;7.95;;
35602;SDS011;21725;50.836;4.368;2022-07-01T01:25:31;21.42;;;7.85;;
35602;SDS011;21725;50.836;4.368;2022-07-01T01:27:58;12.90;;;7.65;;
35602;SDS011;21725;50.836;4.368;2022-07-01T01:30:24;15.52;;;7.93;;
35602;SDS011;21725;50.836;4.368;2022-07-01T01:32:51;15.95;;;7.93;;
35602;SDS011;21725;50.836;4.368;2022-07-01T01:35:18;15.85;;;7.28;;
35602;SDS011;21725;50.836;4.368;2022-07-01T01:37:44;14.38;;;7.93;;
35602;SDS011;21725;50.836;4.368;2022-07-01T01:40:10;14.32;;;8.68;;
35602;SDS011;21725;50.836;4.368;2022-07-01T01:42:45;19.15;;;7.13;;
35602;SDS011;21725;50.836;4.368;2022-07-01T01:45:11;15.30;;;8.63;;
35602;SDS011;21725;50.836;4.368;2022-07-01T01:47:38;16.00;;;7.47;;
35602;SDS011;21725;50.836;4.368;2022-07-01T01:50:05;17.27;;;7.82;;
35602;SDS011;21725;50.836;4.368;2022-07-01T01:52:36;13.10;;;6.72;;
35602;SDS011;21725;50.836;4.368;2022-07-01T01:55:04;16.27;;;7.53;;
35602;SDS011;21725;50.836;4.368;2022-07-01T01:57:31;14.75;;;6.95;;
35602;SDS011;21725;50.836;4.368;2022-07-01T01:59:57;11.80;;;6.45;;
35602;SDS011;21725;50.836;4.368;2022-07-01T02:02:24;16.58;;;7.65;;
35602;SDS011;21725;50.836;4.368;2022-07-01T02:04:49;11.45;;;6.80;;
35602;SDS011;21725;50.836;4.368;2022-07-01T02:07:17;13.93;;;6.28;;
35602;SDS011;21725;50.836;4.368;2022-07-01T02:09:46;20.52;;;7.32;;
35602;SDS011;21725;50.836;4.368;2022-07-01T02:12:13;15.60;;;6.53;;
35602;SDS011;21725;50.836;4.368;2022-07-01T02:14:39;13.40;;;6.18;;
35602;SDS011;21725;50.836;4.368;2022-07-01T02:17:04;15.43;;;7.53;;
35602;SDS011;21725;50.836;4.368;2022-07-01T02:19:30;10.65;;;6.63;;
35602;SDS011;21725;50.836;4.368;2022-07-01T02:21:56;11.77;;;5.47;;
35602;SDS011;21725;50.836;4.368;2022-07-01T02:24:21;13.20;;;7.50;;
35602;SDS011;21725;50.836;4.368;2022-07-01T02:26:47;16.48;;;6.55;;
35602;SDS011;21725;50.836;4.368;2022-07-01T02:29:14;12.02;;;6.22;;
35602;SDS011;21725;50.836;4.368;2022-07-01T02:31:40;10.20;;;5.70;;
35602;SDS011;21725;50.836;4.368;2022-07-01T02:34:06;14.52;;;7.35;;
35602;SDS011;21725;50.836;4.368;2022-07-01T02:36:33;21.48;;;5.72;;
35602;SDS011;21725;50.836;4.368;2022-07-01T02:38:58;13.35;;;6.57;;
35602;SDS011;21725;50.836;4.368;2022-07-01T02:41:24;13.20;;;6.60;;
35602;SDS011;21725;50.836;4.368;2022-07-01T02:43:51;13.48;;;6.20;;
35602;SDS011;21725;50.836;4.368;2022-07-01T02:46:16;12.48;;;5.93;;
35602;SDS011;21725;50.836;4.368;2022-07-01T02:48:42;12.07;;;6.63;;
35602;SDS011;21725;50.836;4.368;2022-07-01T02:51:08;12.93;;;6.55;;
35602;SDS011;21725;50.836;4.368;2022-07-01T02:53:34;11.38;;;6.28;;
35602;SDS011;21725;50.836;4.368;2022-07-01T02:56:00;15.23;;;6.47;;
35602;SDS011;21725;50.836;4.368;2022-07-01T02:58:26;12.90;;;5.95;;
35602;SDS011;21725;50.836;4.368;2022-07-01T03:00:52;15.73;;;6.65;;
35602;SDS011;21725;50.836;4.368;2022-07-01T03:03:24;10.45;;;5.70;;
35602;SDS011;21725;50.836;4.368;2022-07-01T03:05:50;13.63;;;6.45;;
35602;SDS011;21725;50.836;4.368;2022-07-01T03:08:17;8.75;;;5.65;;
35602;SDS011;21725;50.836;4.368;2022-07-01T03:10:43;11.60;;;5.72;;
35602;SDS011;21725;50.836;4.368;2022-07-01T03:13:08;9.98;;;5.63;;
35602;SDS011;21725;50.836;4.368;2022-07-01T03:15:35;15.02;;;5.50;;
35602;SDS011;21725;50.836;4.368;2022-07-01T03:18:03;15.83;;;5.80;;
35602;SDS011;21725;50.836;4.368;2022-07-01T03:20:29;13.10;;;5.53;;
35602;SDS011;21725;50.836;4.368;2022-07-01T03:22:54;32.90;;;6.95;;
35602;SDS011;21725;50.836;4.368;2022-07-01T03:25:22;10.65;;;5.90;;
35602;SDS011;21725;50.836;4.368;2022-07-01T03:27:48;11.77;;;6.88;;
35602;SDS011;21725;50.836;4.368;2022-07-01T03:30:14;15.35;;;8.45;;
35602;SDS011;21725;50.836;4.368;2022-07-01T03:32:40;13.90;;;8.02;;
35602;SDS011;21725;50.836;4.368;2022-07-01T03:35:07;14.60;;;7.95;;
35602;SDS011;21725;50.836;4.368;2022-07-01T03:37:52;11.70;;;7.65;;
35602;SDS011;21725;50.836;4.368;2022-07-01T03:40:21;13.05;;;6.57;;
35602;SDS011;21725;50.836;4.368;2022-07-01T03:42:47;11.07;;;6.43;;
35602;SDS011;21725;50.836;4.368;2022-07-01T03:45:16;11.20;;;5.97;;
35602;SDS011;21725;50.836;4.368;2022-07-01T03:47:45;9.88;;;5.30;;
35602;SDS011;21725;50.836;4.368;2022-07-01T03:50:12;12.75;;;5.63;;
35602;SDS011;21725;50.836;4.368;2022-07-01T03:52:41;10.90;;;4.70;;
35602;SDS011;21725;50.836;4.368;2022-07-01T03:55:10;15.63;;;6.18;;
35602;SDS011;21725;50.836;4.368;2022-07-01T03:57:37;13.82;;;5.75;;
35602;SDS011;21725;50.836;4.368;2022-07-01T04:00:10;7.55;;;5.28;;
35602;SDS011;21725;50.836;4.368;2022-07-01T04:02:37;8.48;;;5.18;;
35602;SDS011;21725;50.836;4.368;2022-07-01T04:05:03;16.88;;;5.65;;
35602;SDS011;21725;50.836;4.368;2022-07-01T04:29:10;10.68;;;4.47;;
35602;SDS011;21725;50.836;4.368;2022-07-01T04:31:37;18.23;;;4.75;;
35602;SDS011;21725;50.836;4.368;2022-07-01T04:34:07;20.70;;;5.75;;
35602;SDS011;21725;50.836;4.368;2022-07-01T04:36:33;14.38;;;4.18;;
35602;SDS011;21725;50.836;4.368;2022-07-01T04:39:00;12.10;;;5.47;;
35602;SDS011;21725;50.836;4.368;2022-07-01T04:41:26;12.77;;;4.13;;
35602;SDS011;21725;50.836;4.368;2022-07-01T04:44:10;13.10;;;4.45;;
35602;SDS011;21725;50.836;4.368;2022-07-01T04:46:36;14.27;;;6.10;;
35602;SDS011;21725;50.836;4.368;2022-07-01T04:49:02;8.70;;;4.10;;
35602;SDS011;21725;50.836;4.368;2022-07-01T04:51:28;8.90;;;3.97;;
35602;SDS011;21725;50.836;4.368;2022-07-01T04:53:54;12.02;;;5.13;;
35602;SDS011;21725;50.836;4.368;2022-07-01T04:56:20;8.65;;;4.93;;
35602;SDS011;21725;50.836;4.368;2022-07-01T04:58:46;7.88;;;3.50;;
35602;SDS011;21725;50.836;4.368;2022-07-01T05:01:12;6.82;;;3.72;;
35602;SDS011;21725;50.836;4.368;2022-07-01T05:03:38;8.57;;;3.83;;
35602;SDS011;21725;50.836;4.368;2022-07-01T05:06:04;8.82;;;3.78;;
35602;SDS011;21725;50.836;4.368;2022-07-01T05:08:30;10.35;;;3.88;;
35602;SDS011;21725;50.836;4.368;2022-07-01T05:10:55;9.05;;;3.95;;
35602;SDS011;21725;50.836;4.368;2022-07-01T05:13:21;11.27;;;3.80;;
35602;SDS011;21725;50.836;4.368;2022-07-01T05:15:47;7.45;;;3.30;;
35602;SDS011;21725;50.836;4.368;2022-07-01T05:18:12;8.48;;;3.00;;
35602;SDS011;21725;50.836;4.368;2022-07-01T05:20:56;9.60;;;3.50;;
35602;SDS011;21725;50.836;4.368;2022-07-01T05:23:41;8.52;;;3.15;;
35602;SDS011;21725;50.836;4.368;2022-07-01T05:26:06;11.52;;;3.97;;
35602;SDS011;21725;50.836;4.368;2022-07-01T05:28:32;8.27;;;3.22;;
35602;SDS011;21725;50.836;4.368;2022-07-01T05:30:58;15.77;;;3.70;;
35602;SDS011;21725;50.836;4.368;2022-07-01T05:33:23;10.90;;;3.33;;
35602;SDS011;21725;50.836;4.368;2022-07-01T05:35:51;11.43;;;3.35;;
35602;SDS011;21725;50.836;4.368;2022-07-01T05:38:18;7.10;;;3.13;;
35602;SDS011;21725;50.836;4.368;2022-07-01T05:40:43;8.07;;;3.67;;
35602;SDS011;21725;50.836;4.368;2022-07-01T05:43:09;13.23;;;3.15;;
35602;SDS011;21725;50.836;4.368;2022-07-01T05:45:35;8.95;;;4.28;;
35602;SDS011;21725;50.836;4.368;2022-07-01T05:48:02;10.52;;;2.97;;
35602;SDS011;21725;50.836;4.368;2022-07-01T05:50:27;16.45;;;4.10;;
35602;SDS011;21725;50.836;4.368;2022-07-01T05:52:53;13.05;;;4.35;;
35602;SDS011;21725;50.836;4.368;2022-07-01T05:55:19;8.00;;;3.22;;
35602;SDS011;21725;50.836;4.368;2022-07-01T05:57:44;7.90;;;3.55;;
35602;SDS011;21725;50.836;4.368;2022-07-01T06:00:10;7.10;;;3.05;;
35602;SDS011;21725;50.836;4.368;2022-07-01T06:02:36;11.02;;;3.80;;
35602;SDS011;21725;50.836;4.368;2022-07-01T06:05:02;7.72;;;2.80;;
35602;SDS011;21725;50.836;4.368;2022-07-01T06:07:38;11.30;;;3.42;;
35602;SDS011;21725;50.836;4.368;2022-07-01T06:10:06;10.82;;;3.38;;
35602;SDS011;21725;50.836;4.368;2022-07-01T06:12:33;11.50;;;4.45;;
35602;SDS011;21725;50.836;4.368;2022-07-01T06:15:06;10.80;;;3.30;;
35602;SDS011;21725;50.836;4.368;2022-07-01T06:17:33;7.00;;;3.10;;
35602;SDS011;21725;50.836;4.368;2022-07-01T06:20:00;10.68;;;3.75;;
35602;SDS011;21725;50.836;4.368;2022-07-01T06:22:26;9.95;;;4.22;;
35602;SDS011;21725;50.836;4.368;2022-07-01T06:24:51;11.90;;;3.58;;
35602;SDS011;21725;50.836;4.368;2022-07-01T06:27:17;7.35;;;3.00;;
35602;SDS011;21725;50.836;4.368;2022-07-01T06:29:42;11.25;;;4.45;;
35602;SDS011;21725;50.836;4.368;2022-07-01T06:32:08;13.93;;;3.58;;
35602;SDS011;21725;50.836;4.368;2022-07-01T06:34:34;13.45;;;3.53;;
35602;SDS011;21725;50.836;4.368;2022-07-01T06:37:00;8.15;;;3.42;;
35602;SDS011;21725;50.836;4.368;2022-07-01T06:39:27;7.18;;;2.42;;
35602;SDS011;21725;50.836;4.368;2022-07-01T06:41:54;5.65;;;3.20;;
35602;SDS011;21725;50.836;4.368;2022-07-01T06:44:20;11.63;;;3.85;;
35602;SDS011;21725;50.836;4.368;2022-07-01T06:46:45;12.45;;;3.53;;
35602;SDS011;21725;50.836;4.368;2022-07-01T06:49:11;8.55;;;2.78;;
35602;SDS011;21725;50.836;4.368;2022-07-01T06:51:37;10.45;;;2.78;;
35602;SDS011;21725;50.836;4.368;2022-07-01T06:54:03;11.15;;;5.00;;
35602;SDS011;21725;50.836;4.368;2022-07-01T06:56:28;8.13;;;3.35;;
35602;SDS011;21725;50.836;4.368;2022-07-01T06:58:55;9.48;;;3.83;;
35602;SDS011;21725;50.836;4.368;2022-07-01T07:01:21;11.10;;;3.55;;
35602;SDS011;21725;50.836;4.368;2022-07-01T07:03:47;11.35;;;3.00;;
35602;SDS011;21725;50.836;4.368;2022-07-01T07:06:13;10.07;;;2.63;;
35602;SDS011;21725;50.836;4.368;2022-07-01T07:08:39;11.48;;;3.42;;
35602;SDS011;21725;50.836;4.368;2022-07-01T07:11:04;8.57;;;3.58;;
35602;SDS011;21725;50.836;4.368;2022-07-01T07:13:32;9.20;;;2.60;;
35602;SDS011;21725;50.836;4.368;2022-07-01T07:15:57;6.78;;;2.85;;
35602;SDS011;21725;50.836;4.368;2022-07-01T07:18:23;10.23;;;3.65;;
35602;SDS011;21725;50.836;4.368;2022-07-01T07:20:49;6.40;;;2.75;;
35602;SDS011;21725;50.836;4.368;2022-07-01T07:23:14;6.40;;;2.30;;
35602;SDS011;21725;50.836;4.368;2022-07-01T07:25:40;7.72;;;2.50;;
35602;SDS011;21725;50.836;4.368;2022-07-01T07:28:06;12.38;;;2.28;;
35602;SDS011;21725;50.836;4.368;2022-07-01T07:30:32;4.40;;;1.90;;
35602;SDS011;21725;50.836;4.368;2022-07-01T07:32:58;7.72;;;2.40;;
35602;SDS011;21725;50.836;4.368;2022-07-01T07:35:24;7.82;;;1.80;;
35602;SDS011;21725;50.836;4.368;2022-07-01T07:37:49;6.90;;;2.10;;
35602;SDS011;21725;50.836;4.368;2022-07-01T07:40:15;14.82;;;2.47;;
35602;SDS011;21725;50.836;4.368;2022-07-01T07:42:44;10.00;;;2.47;;
35602;SDS011;21725;50.836;4.368;2022-07-01T07:45:11;12.70;;;3.28;;
35602;SDS011;21725;50.836;4.368;2022-07-01T07:47:40;6.95;;;2.35;;
35602;SDS011;21725;50.836;4.368;2022-07-01T07:50:09;6.90;;;2.35;;
35602;SDS011;21725;50.836;4.368;2022-07-01T07:52:35;6.20;;;2.00;;
35602;SDS011;21725;50.836;4.368;2022-07-01T07:55:01;8.57;;;2.38;;
35602;SDS011;21725;50.836;4.368;2022-07-01T07:57:27;10.60;;;3.50;;
35602;SDS011;21725;50.836;4.368;2022-07-01T07:59:53;8.90;;;2.38;;
35602;SDS011;21725;50.836;4.368;2022-07-01T08:02:19;7.07;;;3.08;;
35602;SDS011;21725;50.836;4.368;2022-07-01T08:04:45;6.13;;;2.70;;
35602;SDS011;21725;50.836;4.368;2022-07-01T08:07:10;7.38;;;1.90;;
35602;SDS011;21725;50.836;4.368;2022-07-01T08:09:36;9.38;;;2.88;;
35602;SDS011;21725;50.836;4.368;2022-07-01T08:12:02;5.15;;;1.63;;
35602;SDS011;21725;50.836;4.368;2022-07-01T08:14:29;6.22;;;1.75;;
35602;SDS011;21725;50.836;4.368;2022-07-01T08:16:55;8.05;;;2.45;;
35602;SDS011;21725;50.836;4.368;2022-07-01T08:19:21;4.22;;;1.90;;
35602;SDS011;21725;50.836;4.368;2022-07-01T08:21:47;6.43;;;1.80;;
35602;SDS011;21725;50.836;4.368;2022-07-01T08:24:12;6.50;;;2.45;;
35602;SDS011;21725;50.836;4.368;2022-07-01T08:26:38;4.45;;;1.67;;
35602;SDS011;21725;50.836;4.368;2022-07-01T08:29:03;6.18;;;2.25;;
35602;SDS011;21725;50.836;4.368;2022-07-01T08:31:29;11.93;;;3.35;;
35602;SDS011;21725;50.836;4.368;2022-07-01T08:33:56;6.75;;;2.28;;
35602;SDS011;21725;50.836;4.368;2022-07-01T08:36:23;8.95;;;2.42;;
35602;SDS011;21725;50.836;4.368;2022-07-01T08:38:48;6.82;;;2.72;;
35602;SDS011;21725;50.836;4.368;2022-07-01T08:41:14;7.18;;;2.13;;
35602;SDS011;21725;50.836;4.368;2022-07-01T08:43:41;9.48;;;2.63;;
35602;SDS011;21725;50.836;4.368;2022-07-01T08:46:06;7.13;;;2.25;;
35602;SDS011;21725;50.836;4.368;2022-07-01T08:48:33;10.18;;;1.92;;
35602;SDS011;21725;50.836;4.368;2022-07-01T08:50:58;7.43;;;2.72;;
35602;SDS011;21725;50.836;4.368;2022-07-01T08:53:28;7.03;;;2.33;;
35602;SDS011;21725;50.836;4.368;2022-07-01T08:55:55;7.88;;;2.60;;
35602;SDS011;21725;50.836;4.368;2022-07-01T08:58:39;6.35;;;2.28;;
35602;SDS011;21725;50.836;4.368;2022-07-01T09:01:11;6.53;;;2.72;;
35602;SDS011;21725;50.836;4.368;2022-07-01T09:03:39;8.45;;;3.10;;
35602;SDS011;21725;50.836;4.368;2022-07-01T09:06:10;7.13;;;2.75;;
35602;SDS011;21725;50.836;4.368;2022-07-01T09:08:41;8.85;;;2.67;;
35602;SDS011;21725;50.836;4.368;2022-07-01T09:11:11;6.75;;;2.40;;
35602;SDS011;21725;50.836;4.368;2022-07-01T09:13:37;11.75;;;5.65;;
35602;SDS011;21725;50.836;4.368;2022-07-01T09:16:10;9.55;;;4.28;;
35602;SDS011;21725;50.836;4.368;2022-07-01T09:18:37;4.72;;;2.15;;
35602;SDS011;21725;50.836;4.368;2022-07-01T09:21:02;12.50;;;2.67;;
35602;SDS011;21725;50.836;4.368;2022-07-01T09:23:33;7.50;;;2.55;;
35602;SDS011;21725;50.836;4.368;2022-07-01T09:25:58;4.40;;;2.05;;
35602;SDS011;21725;50.836;4.368;2022-07-01T09:28:25;6.93;;;3.35;;
35602;SDS011;21725;50.836;4.368;2022-07-01T09:30:55;3.70;;;1.85;;
35602;SDS011;21725;50.836;4.368;2022-07-01T09:33:23;5.30;;;2.20;;
35602;SDS011;21725;50.836;4.368;2022-07-01T09:35:50;5.28;;;2.22;;
35602;SDS011;21725;50.836;4.368;2022-07-01T09:38:19;5.10;;;2.83;;
35602;SDS011;21725;50.836;4.368;2022-07-01T09:40:53;8.98;;;2.47;;
35602;SDS011;21725;50.836;4.368;2022-07-01T09:48:22;6.82;;;2.38;;
35602;SDS011;21725;50.836;4.368;2022-07-01T09:51:08;4.53;;;2.60;;
35602;SDS011;21725;50.836;4.368;2022-07-01T09:53:34;7.45;;;2.92;;
35602;SDS011;21725;50.836;4.368;2022-07-01T09:56:00;6.20;;;3.22;;
35602;SDS011;21725;50.836;4.368;2022-07-01T09:58:26;10.73;;;2.70;;
35602;SDS011;21725;50.836;4.368;2022-07-01T10:00:52;6.97;;;2.50;;
35602;SDS011;21725;50.836;4.368;2022-07-01T10:03:19;10.80;;;3.33;;
35602;SDS011;21725;50.836;4.368;2022-07-01T10:27:45;6.85;;;2.80;;
35602;SDS011;21725;50.836;4.368;2022-07-01T10:30:31;3.83;;;2.40;;
35602;SDS011;21725;50.836;4.368;2022-07-01T10:32:58;4.75;;;2.05;;
35602;SDS011;21725;50.836;4.368;2022-07-01T10:35:24;7.03;;;2.40;;
35602;SDS011;21725;50.836;4.368;2022-07-01T10:37:57;9.05;;;1.95;;
35602;SDS011;21725;50.836;4.368;2022-07-01T10:40:42;4.60;;;1.80;;
35602;SDS011;21725;50.836;4.368;2022-07-01T10:43:11;3.80;;;2.22;;
35602;SDS011;21725;50.836;4.368;2022-07-01T10:45:42;5.80;;;2.55;;
35602;SDS011;21725;50.836;4.368;2022-07-01T10:50:45;4.63;;;1.90;;
35602;SDS011;21725;50.836;4.368;2022-07-01T10:53:15;5.72;;;2.22;;
35602;SDS011;21725;50.836;4.368;2022-07-01T10:55:44;5.72;;;2.50;;
35602;SDS011;21725;50.836;4.368;2022-07-01T10:58:15;7.10;;;2.25;;
35602;SDS011;21725;50.836;4.368;2022-07-01T11:00:44;7.75;;;2.75;;
35602;SDS011;21725;50.836;4.368;2022-07-01T11:03:16;5.45;;;2.00;;
35602;SDS011;21725;50.836;4.368;2022-07-01T11:05:48;6.32;;;1.90;;
35602;SDS011;21725;50.836;4.368;2022-07-01T11:08:16;7.45;;;2.60;;
35602;SDS011;21725;50.836;4.368;2022-07-01T11:10:42;5.28;;;2.33;;
35602;SDS011;21725;50.836;4.368;2022-07-01T11:13:08;8.57;;;3.13;;
35602;SDS011;21725;50.836;4.368;2022-07-01T11:15:37;2.97;;;1.70;;
35602;SDS011;21725;50.836;4.368;2022-07-01T11:18:03;6.60;;;1.90;;
35602;SDS011;21725;50.836;4.368;2022-07-01T11:20:30;8.68;;;2.58;;
35602;SDS011;21725;50.836;4.368;2022-07-01T11:22:57;3.78;;;1.95;;
35602;SDS011;21725;50.836;4.368;2022-07-01T11:25:23;10.98;;;2.50;;
35602;SDS011;21725;50.836;4.368;2022-07-01T11:27:52;6.50;;;3.00;;
35602;SDS011;21725;50.836;4.368;2022-07-01T11:30:28;4.88;;;2.38;;
35602;SDS011;21725;50.836;4.368;2022-07-01T11:32:55;6.38;;;2.33;;
35602;SDS011;21725;50.836;4.368;2022-07-01T11:35:23;3.60;;;1.70;;
35602;SDS011;21725;50.836;4.368;2022-07-01T11:38:11;4.82;;;1.90;;
35602;SDS011;21725;50.836;4.368;2022-07-01T11:40:58;6.10;;;1.70;;
35602;SDS011;21725;50.836;4.368;2022-07-01T11:43:26;3.93;;;1.70;;
35602;SDS011;21725;50.836;4.368;2022-07-01T11:45:54;3.30;;;2.08;;
35602;SDS011;21725;50.836;4.368;2022-07-01T11:48:35;5.75;;;2.92;;
35602;SDS011;21725;50.836;4.368;2022-07-01T11:51:05;3.80;;;1.70;;
35602;SDS011;21725;50.836;4.368;2022-07-01T11:53:41;7.15;;;2.15;;
35602;SDS011;21725;50.836;4.368;2022-07-01T11:56:08;7.63;;;2.35;;
35602;SDS011;21725;50.836;4.368;2022-07-01T11:58:40;4.72;;;2.10;;
35602;SDS011;21725;50.836;4.368;2022-07-01T12:01:06;2.83;;;1.30;;
35602;SDS011;21725;50.836;4.368;2022-07-01T12:03:33;3.47;;;1.65;;
35602;SDS011;21725;50.836;4.368;2022-07-01T12:05:59;3.30;;;2.03;;
35602;SDS011;21725;50.836;4.368;2022-07-01T12:08:25;3.47;;;1.80;;
35602;SDS011;21725;50.836;4.368;2022-07-01T12:10:52;5.25;;;1.77;;
35602;SDS011;21725;50.836;4.368;2022-07-01T12:13:25;4.43;;;2.55;;
35602;SDS011;21725;50.836;4.368;2022-07-01T12:15:51;4.88;;;1.90;;
35602;SDS011;21725;50.836;4.368;2022-07-01T12:18:17;5.97;;;2.03;;
35602;SDS011;21725;50.836;4.368;2022-07-01T12:21:04;6.53;;;2.05;;
35602;SDS011;21725;50.836;4.368;2022-07-01T12:23:29;8.10;;;2.50;;
35602;SDS011;21725;50.836;4.368;2022-07-01T12:25:57;4.50;;;2.05;;
35602;SDS011;21725;50.836;4.368;2022-07-01T12:28:44;7.90;;;1.85;;
35602;SDS011;21725;50.836;4.368;2022-07-01T12:31:09;3.42;;;1.90;;
35602;SDS011;21725;50.836;4.368;2022-07-01T12:33:39;4.68;;;1.52;;
35602;SDS011;21725;50.836;4.368;2022-07-01T12:36:06;3.75;;;2.10;;
35602;SDS011;21725;50.836;4.368;2022-07-01T12:38:32;6.35;;;2.08;;
35602;SDS011;21725;50.836;4.368;2022-07-01T12:40:59;3.50;;;1.70;;
35602;SDS011;21725;50.836;4.368;2022-07-01T12:43:29;4.50;;;1.63;;
35602;SDS011;21725;50.836;4.368;2022-07-01T12:45:59;5.97;;;2.00;;
35602;SDS011;21725;50.836;4.368;2022-07-01T12:48:26;6.05;;;2.10;;
35602;SDS011;21725;50.836;4.368;2022-07-01T12:50:55;5.53;;;2.25;;
35602;SDS011;21725;50.836;4.368;2022-07-01T12:53:22;4.07;;;1.90;;
35602;SDS011;21725;50.836;4.368;2022-07-01T12:55:54;14.40;;;2.78;;
35602;SDS011;21725;50.836;4.368;2022-07-01T12:58:25;4.82;;;1.38;;
35602;SDS011;21725;50.836;4.368;2022-07-01T13:00:55;5.75;;;2.38;;
35602;SDS011;21725;50.836;4.368;2022-07-01T13:03:24;8.95;;;2.25;;
35602;SDS011;21725;50.836;4.368;2022-07-01T13:05:51;3.38;;;1.60;;
35602;SDS011;21725;50.836;4.368;2022-07-01T13:08:18;6.20;;;2.47;;
35602;SDS011;21725;50.836;4.368;2022-07-01T13:10:44;6.03;;;2.13;;
35602;SDS011;21725;50.836;4.368;2022-07-01T13:13:11;4.25;;;1.50;;
35602;SDS011;21725;50.836;4.368;2022-07-01T13:15:37;4.55;;;1.58;;
35602;SDS011;21725;50.836;4.368;2022-07-01T13:18:03;4.82;;;1.58;;
35602;SDS011;21725;50.836;4.368;2022-07-01T13:20:30;4.93;;;1.55;;
35602;SDS011;21725;50.836;4.368;2022-07-01T13:22:56;5.55;;;2.08;;
35602;SDS011;21725;50.836;4.368;2022-07-01T13:25:21;7.38;;;2.42;;
35602;SDS011;21725;50.836;4.368;2022-07-01T13:27:47;3.15;;;1.50;;
35602;SDS011;21725;50.836;4.368;2022-07-01T13:30:13;7.25;;;2.00;;
35602;SDS011;21725;50.836;4.368;2022-07-01T13:32:41;4.30;;;2.13;;
35602;SDS011;21725;50.836;4.368;2022-07-01T13:35:07;3.72;;;1.70;;
35602;SDS011;21725;50.836;4.368;2022-07-01T13:37:34;4.15;;;1.70;;
35602;SDS011;21725;50.836;4.368;2022-07-01T13:40:00;6.50;;;1.98;;
35602;SDS011;21725;50.836;4.368;2022-07-01T13:42:26;4.38;;;1.80;;
35602;SDS011;21725;50.836;4.368;2022-07-01T13:44:52;6.30;;;1.98;;
35602;SDS011;21725;50.836;4.368;2022-07-01T13:47:18;12.07;;;2.13;;
35602;SDS011;21725;50.836;4.368;2022-07-01T13:49:44;3.67;;;1.55;;
35602;SDS011;21725;50.836;4.368;2022-07-01T13:52:13;3.53;;;1.60;;
35602;SDS011;21725;50.836;4.368;2022-07-01T13:54:38;4.35;;;1.98;;
35602;SDS011;21725;50.836;4.368;2022-07-01T13:57:04;4.78;;;2.03;;
35602;SDS011;21725;50.836;4.368;2022-07-01T13:59:30;3.97;;;1.83;;
35602;SDS011;21725;50.836;4.368;2022-07-01T14:01:57;5.95;;;1.70;;
35602;SDS011;21725;50.836;4.368;2022-07-01T14:04:24;3.97;;;1.83;;
35602;SDS011;21725;50.836;4.368;2022-07-01T14:06:49;7.10;;;1.65;;
35602;SDS011;21725;50.836;4.368;2022-07-01T14:09:15;5.75;;;1.83;;
35602;SDS011;21725;50.836;4.368;2022-07-01T14:11:41;2.95;;;1.52;;
35602;SDS011;21725;50.836;4.368;2022-07-01T14:14:06;3.22;;;1.50;;
35602;SDS011;21725;50.836;4.368;2022-07-01T14:16:32;2.60;;;1.55;;
35602;SDS011;21725;50.836;4.368;2022-07-01T14:18:58;3.78;;;1.70;;
35602;SDS011;21725;50.836;4.368;2022-07-01T14:21:24;5.13;;;1.52;;
35602;SDS011;21725;50.836;4.368;2022-07-01T14:23:50;4.90;;;1.92;;
35602;SDS011;21725;50.836;4.368;2022-07-01T14:26:16;8.18;;;1.77;;
35602;SDS011;21725;50.836;4.368;2022-07-01T14:28:42;5.13;;;1.80;;
35602;SDS011;21725;50.836;4.368;2022-07-01T14:31:08;3.35;;;1.50;;
35602;SDS011;21725;50.836;4.368;2022-07-01T14:33:33;3.20;;;1.52;;
35602;SDS011;21725;50.836;4.368;2022-07-01T14:35:59;4.00;;;2.33;;
35602;SDS011;21725;50.836;4.368;2022-07-01T14:38:25;5.20;;;2.45;;
35602;SDS011;21725;50.836;4.368;2022-07-01T14:40:51;3.10;;;1.40;;
35602;SDS011;21725;50.836;4.368;2022-07-01T14:43:17;3.00;;;1.70;;
35602;SDS011;21725;50.836;4.368;2022-07-01T14:45:43;9.88;;;2.60;;
35602;SDS011;21725;50.836;4.368;2022-07-01T14:48:09;5.28;;;2.33;;
35602;SDS011;21725;50.836;4.368;2022-07-01T14:50:35;2.97;;;1.55;;
35602;SDS011;21725;50.836;4.368;2022-07-01T14:53:01;7.95;;;1.92;;
35602;SDS011;21725;50.836;4.368;2022-07-01T14:55:28;4.82;;;2.00;;
35602;SDS011;21725;50.836;4.368;2022-07-01T14:57:54;5.90;;;1.60;;
35602;SDS011;21725;50.836;4.368;2022-07-01T15:00:20;4.20;;;1.85;;
35602;SDS011;21725;50.836;4.368;2022-07-01T15:02:46;6.32;;;1.42;;
35602;SDS011;21725;50.836;4.368;2022-07-01T15:05:13;3.25;;;1.60;;
35602;SDS011;21725;50.836;4.368;2022-07-01T15:07:39;6.82;;;2.13;;
35602;SDS011;21725;50.836;4.368;2022-07-01T15:10:05;2.45;;;1.40;;
35602;SDS011;21725;50.836;4.368;2022-07-01T15:12:31;11.80;;;2.22;;
35602;SDS011;21725;50.836;4.368;2022-07-01T15:14:57;5.05;;;1.88;;
35602;SDS011;21725;50.836;4.368;2022-07-01T15:17:23;9.23;;;2.30;;
35602;SDS011;21725;50.836;4.368;2022-07-01T15:19:49;8.57;;;1.90;;
35602;SDS011;21725;50.836;4.368;2022-07-01T15:22:15;6.05;;;1.95;;
35602;SDS011;21725;50.836;4.368;2022-07-01T15:24:40;5.30;;;1.98;;
35602;SDS011;21725;50.836;4.368;2022-07-01T15:27:26;6.20;;;2.13;;
35602;SDS011;21725;50.836;4.368;2022-07-01T15:29:52;3.03;;;1.67;;
35602;SDS011;21725;50.836;4.368;2022-07-01T15:32:17;4.15;;;1.30;;
35602;SDS011;21725;50.836;4.368;2022-07-01T15:34:43;4.75;;;1.88;;
35602;SDS011;21725;50.836;4.368;2022-07-01T15:37:09;4.05;;;1.77;;